sensor_id;sensor_type;location;lat;lon;timestamp;P1;durP1;ratioP1;P2;durP2;ratioP2
50968;SDS011;36982;51.474;7.228;2022-11-24T00:01:11;7.57;;;2.40;;
50968;SDS011;36982;51.474;7.228;2022-11-24T00:03:42;11.67;;;2.47;;
50968;SDS011;36982;51.474;7.228;2022-11-24T00:06:09;9.93;;;2.33;;
50968;SDS011;36982;51.474;7.228;2022-11-24T00:08:39;11.47;;;2.63;;
50968;SDS011;36982;51.474;7.228;2022-11-24T00:11:08;11.47;;;3.40;;
50968;SDS011;36982;51.474;7.228;2022-11-24T00:13:38;9.80;;;2.50;;
50968;SDS011;36982;51.474;7.228;2022-11-24T00:18:30;14.30;;;2.80;;
50968;SDS011;36982;51.474;7.228;2022-11-24T00:20:55;11.73;;;2.37;;
50968;SDS011;36982;51.474;7.228;2022-11-24T00:23:21;9.13;;;2.80;;
50968;SDS011;36982;51.474;7.228;2022-11-24T00:25:47;9.23;;;2.30;;
50968;SDS011;36982;51.474;7.228;2022-11-24T00:28:12;8.67;;;2.40;;
50968;SDS011;36982;51.474;7.228;2022-11-24T00:30:38;11.17;;;2.60;;
50968;SDS011;36982;51.474;7.228;2022-11-24T00:33:03;15.10;;;2.40;;
50968;SDS011;36982;51.474;7.228;2022-11-24T00:35:29;14.23;;;2.87;;
50968;SDS011;36982;51.474;7.228;2022-11-24T00:37:54;10.27;;;2.50;;
50968;SDS011;36982;51.474;7.228;2022-11-24T00:40:20;9.17;;;2.60;;
50968;SDS011;36982;51.474;7.228;2022-11-24T00:42:45;11.73;;;3.07;;
50968;SDS011;36982;51.474;7.228;2022-11-24T00:45:11;9.03;;;2.40;;
50968;SDS011;36982;51.474;7.228;2022-11-24T00:47:36;9.20;;;2.03;;
50968;SDS011;36982;51.474;7.228;2022-11-24T00:50:02;15.67;;;2.90;;
50968;SDS011;36982;51.474;7.228;2022-11-24T00:52:28;9.30;;;2.93;;
50968;SDS011;36982;51.474;7.228;2022-11-24T00:54:53;9.37;;;2.00;;
50968;SDS011;36982;51.474;7.228;2022-11-24T00:57:19;12.00;;;2.60;;
50968;SDS011;36982;51.474;7.228;2022-11-24T00:59:45;10.03;;;2.43;;
50968;SDS011;36982;51.474;7.228;2022-11-24T01:02:10;10.00;;;1.87;;
50968;SDS011;36982;51.474;7.228;2022-11-24T01:04:36;11.43;;;2.40;;
50968;SDS011;36982;51.474;7.228;2022-11-24T01:07:01;8.30;;;2.07;;
50968;SDS011;36982;51.474;7.228;2022-11-24T01:09:27;10.80;;;2.50;;
50968;SDS011;36982;51.474;7.228;2022-11-24T01:11:52;12.40;;;2.50;;
50968;SDS011;36982;51.474;7.228;2022-11-24T01:14:28;10.80;;;2.57;;
50968;SDS011;36982;51.474;7.228;2022-11-24T01:16:54;11.23;;;2.70;;
50968;SDS011;36982;51.474;7.228;2022-11-24T01:19:21;6.93;;;2.53;;
50968;SDS011;36982;51.474;7.228;2022-11-24T01:21:47;12.07;;;2.70;;
50968;SDS011;36982;51.474;7.228;2022-11-24T01:24:12;11.83;;;2.13;;
50968;SDS011;36982;51.474;7.228;2022-11-24T01:26:38;11.40;;;2.43;;
50968;SDS011;36982;51.474;7.228;2022-11-24T01:29:04;9.47;;;2.10;;
50968;SDS011;36982;51.474;7.228;2022-11-24T01:31:29;8.60;;;2.27;;
50968;SDS011;36982;51.474;7.228;2022-11-24T01:33:56;6.33;;;1.93;;
50968;SDS011;36982;51.474;7.228;2022-11-24T01:36:22;8.50;;;2.20;;
50968;SDS011;36982;51.474;7.228;2022-11-24T01:38:48;6.60;;;1.73;;
50968;SDS011;36982;51.474;7.228;2022-11-24T01:41:15;14.97;;;2.40;;
50968;SDS011;36982;51.474;7.228;2022-11-24T01:43:43;10.50;;;2.40;;
50968;SDS011;36982;51.474;7.228;2022-11-24T01:48:39;11.47;;;2.67;;
50968;SDS011;36982;51.474;7.228;2022-11-24T01:51:09;11.63;;;2.47;;
50968;SDS011;36982;51.474;7.228;2022-11-24T01:53:41;10.23;;;2.23;;
50968;SDS011;36982;51.474;7.228;2022-11-24T01:56:13;11.87;;;2.13;;
50968;SDS011;36982;51.474;7.228;2022-11-24T01:58:39;9.50;;;2.27;;
50968;SDS011;36982;51.474;7.228;2022-11-24T02:01:09;12.97;;;2.37;;
50968;SDS011;36982;51.474;7.228;2022-11-24T02:03:36;7.70;;;2.03;;
50968;SDS011;36982;51.474;7.228;2022-11-24T02:06:06;10.63;;;2.03;;
50968;SDS011;36982;51.474;7.228;2022-11-24T02:08:43;7.37;;;2.13;;
50968;SDS011;36982;51.474;7.228;2022-11-24T02:11:15;10.57;;;2.23;;
50968;SDS011;36982;51.474;7.228;2022-11-24T02:13:42;11.23;;;2.07;;
50968;SDS011;36982;51.474;7.228;2022-11-24T02:16:10;21.20;;;2.33;;
50968;SDS011;36982;51.474;7.228;2022-11-24T02:18:36;9.67;;;2.00;;
50968;SDS011;36982;51.474;7.228;2022-11-24T02:21:03;10.33;;;2.37;;
50968;SDS011;36982;51.474;7.228;2022-11-24T02:23:42;12.83;;;2.47;;
50968;SDS011;36982;51.474;7.228;2022-11-24T02:26:26;7.40;;;2.23;;
50968;SDS011;36982;51.474;7.228;2022-11-24T02:29:09;10.13;;;1.90;;
50968;SDS011;36982;51.474;7.228;2022-11-24T02:31:36;8.57;;;2.20;;
50968;SDS011;36982;51.474;7.228;2022-11-24T02:34:03;8.73;;;2.27;;
50968;SDS011;36982;51.474;7.228;2022-11-24T02:36:29;11.67;;;2.13;;
50968;SDS011;36982;51.474;7.228;2022-11-24T02:38:55;14.57;;;3.10;;
50968;SDS011;36982;51.474;7.228;2022-11-24T02:41:20;12.53;;;2.23;;
50968;SDS011;36982;51.474;7.228;2022-11-24T02:43:51;7.03;;;2.20;;
50968;SDS011;36982;51.474;7.228;2022-11-24T02:46:22;9.57;;;1.77;;
50968;SDS011;36982;51.474;7.228;2022-11-24T02:48:48;13.00;;;2.10;;
50968;SDS011;36982;51.474;7.228;2022-11-24T02:51:14;7.23;;;1.93;;
50968;SDS011;36982;51.474;7.228;2022-11-24T02:53:39;11.57;;;2.10;;
50968;SDS011;36982;51.474;7.228;2022-11-24T02:56:05;11.00;;;2.20;;
50968;SDS011;36982;51.474;7.228;2022-11-24T02:58:31;7.77;;;1.90;;
50968;SDS011;36982;51.474;7.228;2022-11-24T03:00:56;13.03;;;2.50;;
50968;SDS011;36982;51.474;7.228;2022-11-24T03:03:24;11.80;;;2.30;;
50968;SDS011;36982;51.474;7.228;2022-11-24T03:05:50;9.60;;;1.83;;
50968;SDS011;36982;51.474;7.228;2022-11-24T03:08:16;11.43;;;2.20;;
50968;SDS011;36982;51.474;7.228;2022-11-24T03:10:41;13.83;;;2.50;;
50968;SDS011;36982;51.474;7.228;2022-11-24T03:13:07;11.67;;;2.07;;
50968;SDS011;36982;51.474;7.228;2022-11-24T03:15:33;10.67;;;2.17;;
50968;SDS011;36982;51.474;7.228;2022-11-24T03:17:59;9.50;;;2.43;;
50968;SDS011;36982;51.474;7.228;2022-11-24T03:20:24;8.40;;;2.13;;
50968;SDS011;36982;51.474;7.228;2022-11-24T03:22:50;10.03;;;2.17;;
50968;SDS011;36982;51.474;7.228;2022-11-24T03:25:16;10.30;;;2.10;;
50968;SDS011;36982;51.474;7.228;2022-11-24T03:27:42;11.47;;;2.40;;
50968;SDS011;36982;51.474;7.228;2022-11-24T03:30:08;11.23;;;2.00;;
50968;SDS011;36982;51.474;7.228;2022-11-24T03:32:34;9.97;;;2.33;;
50968;SDS011;36982;51.474;7.228;2022-11-24T03:34:59;9.63;;;2.03;;
50968;SDS011;36982;51.474;7.228;2022-11-24T03:37:25;9.53;;;1.97;;
50968;SDS011;36982;51.474;7.228;2022-11-24T03:39:50;12.00;;;2.00;;
50968;SDS011;36982;51.474;7.228;2022-11-24T03:42:16;6.23;;;1.70;;
50968;SDS011;36982;51.474;7.228;2022-11-24T03:44:42;13.70;;;2.17;;
50968;SDS011;36982;51.474;7.228;2022-11-24T03:47:08;8.73;;;2.33;;
50968;SDS011;36982;51.474;7.228;2022-11-24T03:49:35;8.80;;;1.87;;
50968;SDS011;36982;51.474;7.228;2022-11-24T03:52:01;5.43;;;1.80;;
50968;SDS011;36982;51.474;7.228;2022-11-24T03:54:26;11.77;;;2.10;;
50968;SDS011;36982;51.474;7.228;2022-11-24T03:56:52;16.43;;;2.43;;
50968;SDS011;36982;51.474;7.228;2022-11-24T03:59:17;13.93;;;2.10;;
50968;SDS011;36982;51.474;7.228;2022-11-24T04:01:43;12.40;;;2.63;;
50968;SDS011;36982;51.474;7.228;2022-11-24T04:04:10;12.53;;;2.77;;
50968;SDS011;36982;51.474;7.228;2022-11-24T04:06:36;6.60;;;2.00;;
50968;SDS011;36982;51.474;7.228;2022-11-24T04:09:02;13.27;;;2.43;;
50968;SDS011;36982;51.474;7.228;2022-11-24T04:11:28;6.43;;;1.83;;
50968;SDS011;36982;51.474;7.228;2022-11-24T04:14:12;9.97;;;2.23;;
50968;SDS011;36982;51.474;7.228;2022-11-24T04:16:38;11.20;;;2.37;;
50968;SDS011;36982;51.474;7.228;2022-11-24T04:19:04;9.53;;;1.87;;
50968;SDS011;36982;51.474;7.228;2022-11-24T04:21:30;12.93;;;2.80;;
50968;SDS011;36982;51.474;7.228;2022-11-24T04:23:55;9.60;;;1.90;;
50968;SDS011;36982;51.474;7.228;2022-11-24T04:26:21;11.07;;;2.73;;
50968;SDS011;36982;51.474;7.228;2022-11-24T04:28:47;9.73;;;2.10;;
50968;SDS011;36982;51.474;7.228;2022-11-24T04:31:12;8.13;;;2.07;;
50968;SDS011;36982;51.474;7.228;2022-11-24T04:33:38;11.00;;;2.43;;
50968;SDS011;36982;51.474;7.228;2022-11-24T04:36:04;12.03;;;2.37;;
50968;SDS011;36982;51.474;7.228;2022-11-24T04:38:30;14.87;;;2.20;;
50968;SDS011;36982;51.474;7.228;2022-11-24T04:40:59;11.10;;;2.17;;
50968;SDS011;36982;51.474;7.228;2022-11-24T04:43:28;12.63;;;2.77;;
50968;SDS011;36982;51.474;7.228;2022-11-24T04:45:55;10.53;;;2.40;;
50968;SDS011;36982;51.474;7.228;2022-11-24T04:48:23;12.57;;;3.03;;
50968;SDS011;36982;51.474;7.228;2022-11-24T04:50:48;14.27;;;3.20;;
50968;SDS011;36982;51.474;7.228;2022-11-24T04:53:14;10.67;;;2.40;;
50968;SDS011;36982;51.474;7.228;2022-11-24T04:55:40;10.40;;;2.40;;
50968;SDS011;36982;51.474;7.228;2022-11-24T04:58:07;11.90;;;2.80;;
50968;SDS011;36982;51.474;7.228;2022-11-24T05:00:34;10.97;;;3.00;;
50968;SDS011;36982;51.474;7.228;2022-11-24T05:02:59;10.73;;;2.60;;
50968;SDS011;36982;51.474;7.228;2022-11-24T05:05:25;13.27;;;2.60;;
50968;SDS011;36982;51.474;7.228;2022-11-24T05:07:51;11.10;;;2.47;;
50968;SDS011;36982;51.474;7.228;2022-11-24T05:10:17;10.63;;;2.50;;
50968;SDS011;36982;51.474;7.228;2022-11-24T05:13:04;11.97;;;2.50;;
50968;SDS011;36982;51.474;7.228;2022-11-24T05:15:35;13.50;;;2.93;;
50968;SDS011;36982;51.474;7.228;2022-11-24T05:18:05;9.37;;;2.57;;
50968;SDS011;36982;51.474;7.228;2022-11-24T05:20:31;10.97;;;2.33;;
50968;SDS011;36982;51.474;7.228;2022-11-24T05:23:01;10.50;;;2.57;;
50968;SDS011;36982;51.474;7.228;2022-11-24T05:25:31;11.90;;;2.47;;
50968;SDS011;36982;51.474;7.228;2022-11-24T05:27:58;12.43;;;2.77;;
50968;SDS011;36982;51.474;7.228;2022-11-24T05:30:25;15.07;;;2.70;;
50968;SDS011;36982;51.474;7.228;2022-11-24T05:32:50;9.00;;;2.67;;
50968;SDS011;36982;51.474;7.228;2022-11-24T05:35:16;15.13;;;2.60;;
50968;SDS011;36982;51.474;7.228;2022-11-24T05:37:42;15.40;;;2.40;;
50968;SDS011;36982;51.474;7.228;2022-11-24T05:40:08;14.30;;;2.13;;
50968;SDS011;36982;51.474;7.228;2022-11-24T05:42:34;15.93;;;3.23;;
50968;SDS011;36982;51.474;7.228;2022-11-24T05:45:12;11.10;;;2.90;;
50968;SDS011;36982;51.474;7.228;2022-11-24T05:47:40;14.03;;;2.70;;
50968;SDS011;36982;51.474;7.228;2022-11-24T05:50:06;16.57;;;3.37;;
50968;SDS011;36982;51.474;7.228;2022-11-24T05:52:34;11.03;;;2.60;;
50968;SDS011;36982;51.474;7.228;2022-11-24T05:55:00;12.03;;;2.77;;
50968;SDS011;36982;51.474;7.228;2022-11-24T05:57:25;11.23;;;2.50;;
50968;SDS011;36982;51.474;7.228;2022-11-24T05:59:51;11.93;;;2.53;;
50968;SDS011;36982;51.474;7.228;2022-11-24T06:02:16;13.63;;;2.83;;
50968;SDS011;36982;51.474;7.228;2022-11-24T06:04:43;11.30;;;3.60;;
50968;SDS011;36982;51.474;7.228;2022-11-24T06:07:08;15.97;;;3.40;;
50968;SDS011;36982;51.474;7.228;2022-11-24T06:09:36;10.83;;;2.63;;
50968;SDS011;36982;51.474;7.228;2022-11-24T06:12:03;12.50;;;2.70;;
50968;SDS011;36982;51.474;7.228;2022-11-24T06:14:30;13.77;;;3.00;;
50968;SDS011;36982;51.474;7.228;2022-11-24T06:16:55;12.00;;;2.40;;
50968;SDS011;36982;51.474;7.228;2022-11-24T06:19:21;9.87;;;2.63;;
50968;SDS011;36982;51.474;7.228;2022-11-24T06:21:46;12.70;;;2.77;;
50968;SDS011;36982;51.474;7.228;2022-11-24T06:24:12;12.27;;;2.43;;
50968;SDS011;36982;51.474;7.228;2022-11-24T06:26:41;17.60;;;2.57;;
50968;SDS011;36982;51.474;7.228;2022-11-24T06:29:11;15.67;;;3.13;;
50968;SDS011;36982;51.474;7.228;2022-11-24T06:31:42;16.17;;;3.00;;
50968;SDS011;36982;51.474;7.228;2022-11-24T06:34:31;15.77;;;2.67;;
50968;SDS011;36982;51.474;7.228;2022-11-24T06:37:08;13.87;;;2.60;;
50968;SDS011;36982;51.474;7.228;2022-11-24T06:39:34;12.43;;;2.30;;
50968;SDS011;36982;51.474;7.228;2022-11-24T06:42:04;15.37;;;3.50;;
50968;SDS011;36982;51.474;7.228;2022-11-24T06:44:39;10.60;;;2.43;;
50968;SDS011;36982;51.474;7.228;2022-11-24T06:47:07;9.83;;;2.53;;
50968;SDS011;36982;51.474;7.228;2022-11-24T06:49:40;9.33;;;2.50;;
50968;SDS011;36982;51.474;7.228;2022-11-24T06:52:17;12.23;;;2.13;;
50968;SDS011;36982;51.474;7.228;2022-11-24T06:54:49;14.50;;;2.73;;
50968;SDS011;36982;51.474;7.228;2022-11-24T06:57:22;13.47;;;2.60;;
50968;SDS011;36982;51.474;7.228;2022-11-24T06:59:51;12.87;;;2.27;;
50968;SDS011;36982;51.474;7.228;2022-11-24T07:02:30;8.97;;;2.73;;
50968;SDS011;36982;51.474;7.228;2022-11-24T07:05:05;11.23;;;2.40;;
50968;SDS011;36982;51.474;7.228;2022-11-24T07:07:39;11.83;;;2.40;;
50968;SDS011;36982;51.474;7.228;2022-11-24T07:10:11;12.93;;;2.83;;
50968;SDS011;36982;51.474;7.228;2022-11-24T07:12:44;10.07;;;1.73;;
50968;SDS011;36982;51.474;7.228;2022-11-24T07:15:20;10.17;;;2.47;;
50968;SDS011;36982;51.474;7.228;2022-11-24T07:18:12;11.33;;;1.90;;
50968;SDS011;36982;51.474;7.228;2022-11-24T07:20:49;10.37;;;2.20;;
50968;SDS011;36982;51.474;7.228;2022-11-24T07:23:20;6.53;;;2.33;;
50968;SDS011;36982;51.474;7.228;2022-11-24T07:25:52;15.57;;;2.30;;
50968;SDS011;36982;51.474;7.228;2022-11-24T07:28:21;7.97;;;1.77;;
50968;SDS011;36982;51.474;7.228;2022-11-24T07:30:49;8.17;;;2.20;;
50968;SDS011;36982;51.474;7.228;2022-11-24T07:33:26;11.90;;;2.23;;
50968;SDS011;36982;51.474;7.228;2022-11-24T07:35:59;9.67;;;1.80;;
50968;SDS011;36982;51.474;7.228;2022-11-24T07:38:30;8.33;;;2.17;;
50968;SDS011;36982;51.474;7.228;2022-11-24T07:41:08;10.00;;;1.60;;
50968;SDS011;36982;51.474;7.228;2022-11-24T07:43:45;8.43;;;2.17;;
50968;SDS011;36982;51.474;7.228;2022-11-24T07:46:23;8.43;;;1.83;;
50968;SDS011;36982;51.474;7.228;2022-11-24T07:48:51;7.47;;;2.33;;
50968;SDS011;36982;51.474;7.228;2022-11-24T07:51:17;7.13;;;1.30;;
50968;SDS011;36982;51.474;7.228;2022-11-24T07:53:53;5.60;;;1.93;;
50968;SDS011;36982;51.474;7.228;2022-11-24T07:56:27;9.77;;;3.87;;
50968;SDS011;36982;51.474;7.228;2022-11-24T07:58:58;8.73;;;2.83;;
50968;SDS011;36982;51.474;7.228;2022-11-24T08:01:30;5.33;;;1.10;;
50968;SDS011;36982;51.474;7.228;2022-11-24T08:04:13;7.07;;;1.40;;
50968;SDS011;36982;51.474;7.228;2022-11-24T08:06:42;5.50;;;1.20;;
50968;SDS011;36982;51.474;7.228;2022-11-24T08:09:16;3.57;;;1.07;;
50968;SDS011;36982;51.474;7.228;2022-11-24T08:11:48;5.10;;;1.20;;
50968;SDS011;36982;51.474;7.228;2022-11-24T08:14:19;3.40;;;0.73;;
50968;SDS011;36982;51.474;7.228;2022-11-24T08:16:56;3.13;;;0.87;;
50968;SDS011;36982;51.474;7.228;2022-11-24T08:19:29;2.60;;;0.73;;
50968;SDS011;36982;51.474;7.228;2022-11-24T08:22:13;5.23;;;1.23;;
50968;SDS011;36982;51.474;7.228;2022-11-24T08:24:52;4.83;;;1.10;;
50968;SDS011;36982;51.474;7.228;2022-11-24T08:27:31;4.67;;;0.90;;
50968;SDS011;36982;51.474;7.228;2022-11-24T08:30:15;6.00;;;0.80;;
50968;SDS011;36982;51.474;7.228;2022-11-24T08:32:52;3.13;;;0.90;;
50968;SDS011;36982;51.474;7.228;2022-11-24T08:35:34;2.93;;;0.80;;
50968;SDS011;36982;51.474;7.228;2022-11-24T08:38:03;6.00;;;1.20;;
50968;SDS011;36982;51.474;7.228;2022-11-24T08:40:37;6.27;;;1.23;;
50968;SDS011;36982;51.474;7.228;2022-11-24T08:43:08;3.57;;;0.87;;
50968;SDS011;36982;51.474;7.228;2022-11-24T08:45:41;2.70;;;1.10;;
50968;SDS011;36982;51.474;7.228;2022-11-24T08:48:17;4.80;;;1.10;;
50968;SDS011;36982;51.474;7.228;2022-11-24T08:50:50;5.10;;;1.20;;
50968;SDS011;36982;51.474;7.228;2022-11-24T08:53:24;2.53;;;0.90;;
50968;SDS011;36982;51.474;7.228;2022-11-24T08:55:52;6.17;;;1.20;;
50968;SDS011;36982;51.474;7.228;2022-11-24T08:58:29;1.93;;;0.70;;
50968;SDS011;36982;51.474;7.228;2022-11-24T09:01:09;2.87;;;1.00;;
50968;SDS011;36982;51.474;7.228;2022-11-24T09:03:55;1.20;;;0.60;;
50968;SDS011;36982;51.474;7.228;2022-11-24T09:06:41;2.77;;;1.00;;
50968;SDS011;36982;51.474;7.228;2022-11-24T09:09:18;3.37;;;1.10;;
50968;SDS011;36982;51.474;7.228;2022-11-24T09:11:49;3.17;;;0.90;;
50968;SDS011;36982;51.474;7.228;2022-11-24T09:14:19;3.90;;;1.30;;
50968;SDS011;36982;51.474;7.228;2022-11-24T09:16:56;3.67;;;1.00;;
50968;SDS011;36982;51.474;7.228;2022-11-24T09:21:55;3.77;;;1.17;;
50968;SDS011;36982;51.474;7.228;2022-11-24T09:24:21;4.43;;;1.10;;
50968;SDS011;36982;51.474;7.228;2022-11-24T09:26:47;6.67;;;1.30;;
50968;SDS011;36982;51.474;7.228;2022-11-24T09:29:12;5.83;;;1.23;;
50968;SDS011;36982;51.474;7.228;2022-11-24T09:31:38;4.87;;;1.17;;
50968;SDS011;36982;51.474;7.228;2022-11-24T09:34:05;4.37;;;1.40;;
50968;SDS011;36982;51.474;7.228;2022-11-24T09:36:32;4.27;;;1.07;;
50968;SDS011;36982;51.474;7.228;2022-11-24T09:38:58;6.10;;;1.20;;
50968;SDS011;36982;51.474;7.228;2022-11-24T09:47:08;3.67;;;1.33;;
50968;SDS011;36982;51.474;7.228;2022-11-24T09:52:20;4.80;;;1.57;;
50968;SDS011;36982;51.474;7.228;2022-11-24T09:55:02;3.83;;;1.50;;
50968;SDS011;36982;51.474;7.228;2022-11-24T09:57:33;4.97;;;1.67;;
50968;SDS011;36982;51.474;7.228;2022-11-24T10:00:02;6.37;;;1.40;;
50968;SDS011;36982;51.474;7.228;2022-11-24T10:02:35;7.83;;;1.70;;
50968;SDS011;36982;51.474;7.228;2022-11-24T10:05:00;3.20;;;1.40;;
50968;SDS011;36982;51.474;7.228;2022-11-24T10:07:26;6.47;;;1.80;;
50968;SDS011;36982;51.474;7.228;2022-11-24T10:10:14;7.50;;;1.77;;
50968;SDS011;36982;51.474;7.228;2022-11-24T10:12:47;5.93;;;1.50;;
50968;SDS011;36982;51.474;7.228;2022-11-24T10:15:32;5.13;;;1.60;;
50968;SDS011;36982;51.474;7.228;2022-11-24T10:21:05;6.10;;;1.80;;
50968;SDS011;36982;51.474;7.228;2022-11-24T10:31:45;7.80;;;2.10;;
50968;SDS011;36982;51.474;7.228;2022-11-24T10:34:16;7.80;;;1.77;;
50968;SDS011;36982;51.474;7.228;2022-11-24T10:39:52;6.53;;;2.00;;
50968;SDS011;36982;51.474;7.228;2022-11-24T10:42:35;9.67;;;2.10;;
50968;SDS011;36982;51.474;7.228;2022-11-24T10:45:20;8.43;;;2.17;;
50968;SDS011;36982;51.474;7.228;2022-11-24T10:47:47;7.10;;;1.70;;
50968;SDS011;36982;51.474;7.228;2022-11-24T10:50:32;9.07;;;2.00;;
50968;SDS011;36982;51.474;7.228;2022-11-24T11:00:47;9.13;;;1.97;;
50968;SDS011;36982;51.474;7.228;2022-11-24T11:03:22;6.00;;;2.30;;
50968;SDS011;36982;51.474;7.228;2022-11-24T11:05:54;5.77;;;1.70;;
50968;SDS011;36982;51.474;7.228;2022-11-24T11:08:35;7.93;;;1.60;;
50968;SDS011;36982;51.474;7.228;2022-11-24T11:14:00;10.83;;;2.23;;
50968;SDS011;36982;51.474;7.228;2022-11-24T11:19:03;9.20;;;2.27;;
50968;SDS011;36982;51.474;7.228;2022-11-24T11:21:49;11.77;;;2.50;;
50968;SDS011;36982;51.474;7.228;2022-11-24T11:24:26;4.93;;;1.77;;
50968;SDS011;36982;51.474;7.228;2022-11-24T11:27:03;6.37;;;1.40;;
50968;SDS011;36982;51.474;7.228;2022-11-24T11:29:40;7.03;;;2.07;;
50968;SDS011;36982;51.474;7.228;2022-11-24T11:32:22;8.57;;;1.90;;
50968;SDS011;36982;51.474;7.228;2022-11-24T11:34:49;7.00;;;2.13;;
50968;SDS011;36982;51.474;7.228;2022-11-24T11:37:17;5.97;;;2.00;;
50968;SDS011;36982;51.474;7.228;2022-11-24T11:39:50;7.57;;;2.07;;
50968;SDS011;36982;51.474;7.228;2022-11-24T11:45:08;7.93;;;2.13;;
50968;SDS011;36982;51.474;7.228;2022-11-24T11:48:01;6.73;;;1.93;;
50968;SDS011;36982;51.474;7.228;2022-11-24T11:53:39;8.43;;;2.30;;
50968;SDS011;36982;51.474;7.228;2022-11-24T11:56:25;6.17;;;2.20;;
50968;SDS011;36982;51.474;7.228;2022-11-24T12:09:20;7.47;;;2.00;;
50968;SDS011;36982;51.474;7.228;2022-11-24T12:14:31;12.67;;;2.53;;
50968;SDS011;36982;51.474;7.228;2022-11-24T12:17:36;5.93;;;2.00;;
50968;SDS011;36982;51.474;7.228;2022-11-24T12:20:13;12.80;;;2.47;;
50968;SDS011;36982;51.474;7.228;2022-11-24T12:23:07;8.67;;;2.03;;
50968;SDS011;36982;51.474;7.228;2022-11-24T12:25:43;10.47;;;2.00;;
50968;SDS011;36982;51.474;7.228;2022-11-24T12:34:08;6.97;;;1.97;;
50968;SDS011;36982;51.474;7.228;2022-11-24T12:45:33;8.63;;;2.40;;
50968;SDS011;36982;51.474;7.228;2022-11-24T12:50:45;13.33;;;2.40;;
50968;SDS011;36982;51.474;7.228;2022-11-24T12:55:41;9.20;;;2.43;;
50968;SDS011;36982;51.474;7.228;2022-11-24T12:58:17;10.40;;;2.33;;
50968;SDS011;36982;51.474;7.228;2022-11-24T13:03:53;6.90;;;2.10;;
50968;SDS011;36982;51.474;7.228;2022-11-24T13:09:09;7.13;;;1.90;;
50968;SDS011;36982;51.474;7.228;2022-11-24T13:11:37;9.90;;;2.23;;
50968;SDS011;36982;51.474;7.228;2022-11-24T13:14:15;7.13;;;1.60;;
50968;SDS011;36982;51.474;7.228;2022-11-24T13:17:32;8.93;;;2.00;;
50968;SDS011;36982;51.474;7.228;2022-11-24T13:22:44;12.67;;;2.10;;
50968;SDS011;36982;51.474;7.228;2022-11-24T13:25:25;8.50;;;2.00;;
50968;SDS011;36982;51.474;7.228;2022-11-24T13:27:55;12.33;;;2.17;;
50968;SDS011;36982;51.474;7.228;2022-11-24T13:33:03;14.07;;;2.00;;
50968;SDS011;36982;51.474;7.228;2022-11-24T13:38:39;10.73;;;1.70;;
50968;SDS011;36982;51.474;7.228;2022-11-24T13:41:09;9.00;;;1.87;;
50968;SDS011;36982;51.474;7.228;2022-11-24T13:57:44;15.97;;;1.80;;
50968;SDS011;36982;51.474;7.228;2022-11-24T14:00:23;10.03;;;1.87;;
50968;SDS011;36982;51.474;7.228;2022-11-24T14:02:58;9.87;;;2.30;;
50968;SDS011;36982;51.474;7.228;2022-11-24T14:05:36;9.57;;;1.77;;
50968;SDS011;36982;51.474;7.228;2022-11-24T14:08:04;10.03;;;2.00;;
50968;SDS011;36982;51.474;7.228;2022-11-24T14:10:39;7.57;;;2.03;;
50968;SDS011;36982;51.474;7.228;2022-11-24T14:13:16;12.77;;;2.57;;
50968;SDS011;36982;51.474;7.228;2022-11-24T14:16:12;10.53;;;1.83;;
50968;SDS011;36982;51.474;7.228;2022-11-24T14:18:44;7.83;;;1.57;;
50968;SDS011;36982;51.474;7.228;2022-11-24T14:29:02;8.63;;;1.97;;
50968;SDS011;36982;51.474;7.228;2022-11-24T14:31:38;8.50;;;2.10;;
50968;SDS011;36982;51.474;7.228;2022-11-24T14:36:36;12.60;;;2.20;;
50968;SDS011;36982;51.474;7.228;2022-11-24T14:39:02;9.57;;;2.10;;
50968;SDS011;36982;51.474;7.228;2022-11-24T14:41:28;6.07;;;1.93;;
50968;SDS011;36982;51.474;7.228;2022-11-24T14:44:02;9.17;;;1.90;;
50968;SDS011;36982;51.474;7.228;2022-11-24T14:46:30;11.60;;;2.60;;
50968;SDS011;36982;51.474;7.228;2022-11-24T14:48:56;11.70;;;2.00;;
50968;SDS011;36982;51.474;7.228;2022-11-24T14:51:26;10.27;;;2.40;;
50968;SDS011;36982;51.474;7.228;2022-11-24T14:53:58;7.43;;;2.00;;
50968;SDS011;36982;51.474;7.228;2022-11-24T14:56:27;8.73;;;2.50;;
50968;SDS011;36982;51.474;7.228;2022-11-24T14:58:54;10.27;;;1.97;;
50968;SDS011;36982;51.474;7.228;2022-11-24T15:06:38;8.37;;;2.27;;
50968;SDS011;36982;51.474;7.228;2022-11-24T15:09:05;8.97;;;1.93;;
50968;SDS011;36982;51.474;7.228;2022-11-24T15:11:31;8.60;;;1.83;;
50968;SDS011;36982;51.474;7.228;2022-11-24T15:13:58;10.77;;;2.50;;
50968;SDS011;36982;51.474;7.228;2022-11-24T15:16:24;9.20;;;2.03;;
50968;SDS011;36982;51.474;7.228;2022-11-24T15:18:56;8.37;;;2.20;;
50968;SDS011;36982;51.474;7.228;2022-11-24T15:26:43;8.33;;;2.37;;
50968;SDS011;36982;51.474;7.228;2022-11-24T15:29:10;11.57;;;2.90;;
50968;SDS011;36982;51.474;7.228;2022-11-24T15:31:37;11.17;;;2.60;;
50968;SDS011;36982;51.474;7.228;2022-11-24T15:34:03;6.37;;;2.20;;
50968;SDS011;36982;51.474;7.228;2022-11-24T15:36:29;9.67;;;2.47;;
50968;SDS011;36982;51.474;7.228;2022-11-24T15:38:54;10.40;;;2.17;;
50968;SDS011;36982;51.474;7.228;2022-11-24T15:41:20;10.17;;;2.20;;
50968;SDS011;36982;51.474;7.228;2022-11-24T15:43:49;14.00;;;2.33;;
50968;SDS011;36982;51.474;7.228;2022-11-24T15:46:20;10.17;;;2.83;;
50968;SDS011;36982;51.474;7.228;2022-11-24T15:48:46;12.90;;;3.20;;
50968;SDS011;36982;51.474;7.228;2022-11-24T15:51:12;14.07;;;2.90;;
50968;SDS011;36982;51.474;7.228;2022-11-24T15:53:43;10.23;;;2.90;;
50968;SDS011;36982;51.474;7.228;2022-11-24T15:56:13;11.03;;;2.50;;
50968;SDS011;36982;51.474;7.228;2022-11-24T15:58:50;9.57;;;2.77;;
50968;SDS011;36982;51.474;7.228;2022-11-24T16:01:16;8.97;;;2.87;;
50968;SDS011;36982;51.474;7.228;2022-11-24T16:03:42;8.50;;;2.67;;
50968;SDS011;36982;51.474;7.228;2022-11-24T16:06:10;10.83;;;3.27;;
50968;SDS011;36982;51.474;7.228;2022-11-24T16:08:38;10.00;;;3.53;;
50968;SDS011;36982;51.474;7.228;2022-11-24T16:11:04;13.30;;;3.00;;
50968;SDS011;36982;51.474;7.228;2022-11-24T16:13:29;13.20;;;3.80;;
50968;SDS011;36982;51.474;7.228;2022-11-24T16:15:55;12.40;;;3.63;;
50968;SDS011;36982;51.474;7.228;2022-11-24T16:18:21;9.80;;;2.97;;
50968;SDS011;36982;51.474;7.228;2022-11-24T16:20:46;10.50;;;3.07;;
50968;SDS011;36982;51.474;7.228;2022-11-24T16:23:12;8.90;;;2.53;;
50968;SDS011;36982;51.474;7.228;2022-11-24T16:25:37;7.83;;;2.43;;
50968;SDS011;36982;51.474;7.228;2022-11-24T16:28:03;10.07;;;2.87;;
50968;SDS011;36982;51.474;7.228;2022-11-24T16:30:29;7.97;;;2.80;;
50968;SDS011;36982;51.474;7.228;2022-11-24T16:32:54;7.57;;;2.90;;
50968;SDS011;36982;51.474;7.228;2022-11-24T16:35:20;10.90;;;3.00;;
50968;SDS011;36982;51.474;7.228;2022-11-24T16:37:45;9.73;;;3.03;;
50968;SDS011;36982;51.474;7.228;2022-11-24T16:40:11;12.63;;;2.77;;
50968;SDS011;36982;51.474;7.228;2022-11-24T16:42:37;10.70;;;3.07;;
50968;SDS011;36982;51.474;7.228;2022-11-24T16:45:02;12.50;;;3.10;;
50968;SDS011;36982;51.474;7.228;2022-11-24T16:47:28;8.87;;;2.90;;
50968;SDS011;36982;51.474;7.228;2022-11-24T16:49:54;11.23;;;2.87;;
50968;SDS011;36982;51.474;7.228;2022-11-24T16:52:19;8.47;;;3.10;;
50968;SDS011;36982;51.474;7.228;2022-11-24T16:54:45;7.13;;;2.50;;
50968;SDS011;36982;51.474;7.228;2022-11-24T16:57:13;8.53;;;3.03;;
50968;SDS011;36982;51.474;7.228;2022-11-24T16:59:53;9.80;;;2.80;;
50968;SDS011;36982;51.474;7.228;2022-11-24T17:02:19;8.67;;;2.47;;
50968;SDS011;36982;51.474;7.228;2022-11-24T17:04:45;8.17;;;2.13;;
50968;SDS011;36982;51.474;7.228;2022-11-24T17:07:10;11.27;;;2.67;;
50968;SDS011;36982;51.474;7.228;2022-11-24T17:09:37;13.43;;;3.53;;